createdAt,value
2018-08-25T00:00:08.219Z,76.46
2018-08-25T00:02:00.993Z,77.13
2018-08-25T00:03:00.918Z,76.56
2018-08-25T00:04:53.729Z,76.56
2018-08-25T00:05:53.645Z,76.65
2018-08-25T00:07:46.441Z,76.56
2018-08-25T00:08:46.367Z,76.46
2018-08-25T00:10:39.141Z,76.23
2018-08-25T00:11:39.066Z,78.44
2018-08-25T00:13:31.841Z,79.59
2018-08-25T00:14:31.774Z,79.49
2018-08-25T00:16:24.569Z,79.11
2018-08-25T00:17:24.490Z,79.39
2018-08-25T00:19:17.268Z,80.26
2018-08-25T00:20:17.209Z,80.35
2018-08-25T00:22:09.995Z,80.93
2018-08-25T00:23:09.913Z,81.12
2018-08-25T00:25:02.737Z,81.98
2018-08-25T00:26:02.669Z,82.46
2018-08-25T00:27:55.446Z,79.59
2018-08-25T00:28:55.369Z,79.68
2018-08-25T00:30:48.173Z,79.59
2018-08-25T00:31:48.096Z,80.64
2018-08-25T00:33:40.871Z,81.31
2018-08-25T00:34:40.805Z,81.41
2018-08-25T00:36:33.648Z,80.16
2018-08-25T00:37:33.557Z,79.97
2018-08-25T00:39:26.340Z,79.78
2018-08-25T00:40:26.270Z,79.97
2018-08-25T00:42:19.067Z,80.83
2018-08-25T00:43:18.984Z,81.70
2018-08-25T00:45:11.785Z,82.37
2018-08-25T00:46:11.730Z,82.85
2018-08-25T00:48:04.509Z,82.56
2018-08-25T00:49:04.447Z,82.56
2018-08-25T00:50:57.210Z,82.65
2018-08-25T00:51:57.131Z,81.70
2018-08-25T00:53:49.930Z,83.42
2018-08-25T00:54:49.846Z,82.46
2018-08-25T00:56:42.616Z,83.42
2018-08-25T00:57:42.545Z,83.04
2018-08-25T00:59:35.315Z,84.38
2018-08-25T01:00:35.279Z,83.81
2018-08-25T01:02:28.039Z,84.63
2018-08-25T01:03:27.957Z,86.25
2018-08-25T01:05:20.727Z,86.35
2018-08-25T01:06:20.662Z,86.74
2018-08-25T01:08:13.473Z,84.82
2018-08-25T01:09:13.416Z,85.58
2018-08-25T01:11:06.189Z,84.05
2018-08-25T01:12:06.122Z,83.29
2018-08-25T01:13:58.892Z,83.29
2018-08-25T01:14:58.833Z,84.63
2018-08-25T01:16:51.614Z,85.97
2018-08-25T01:17:51.536Z,85.78
2018-08-25T01:19:44.304Z,85.58
2018-08-25T01:20:44.240Z,86.74
2018-08-25T01:22:37.017Z,86.98
2018-08-25T01:23:36.950Z,86.50
2018-08-25T01:25:29.709Z,86.98
2018-08-25T01:26:29.647Z,87.37
2018-08-25T01:28:22.450Z,88.13
2018-08-25T01:29:22.361Z,88.80
2018-08-25T01:31:15.144Z,89.18
2018-08-25T01:32:15.065Z,89.37
2018-08-25T01:34:07.855Z,89.90
2018-08-25T01:35:07.779Z,89.90
2018-08-25T01:37:00.554Z,90.29
2018-08-25T01:38:00.489Z,90.58
2018-08-25T01:39:53.248Z,90.39
2018-08-25T01:40:53.183Z,90.29
2018-08-25T01:42:45.961Z,90.58
2018-08-25T01:43:45.885Z,90.09
2018-08-25T01:45:38.662Z,90.39
2018-08-25T01:46:38.590Z,90.48
2018-08-25T01:48:31.368Z,90.77
2018-08-25T01:49:31.290Z,90.05
2018-08-25T01:51:24.111Z,89.57
2018-08-25T01:52:24.021Z,89.47
2018-08-25T01:54:16.796Z,88.70
2018-08-25T01:55:16.723Z,88.80
2018-08-25T01:57:09.500Z,88.90
2018-08-25T01:58:09.440Z,87.94
2018-08-25T02:00:02.220Z,89.57
2018-08-25T02:01:02.155Z,89.18
2018-08-25T02:02:54.991Z,89.09
2018-08-25T02:03:54.856Z,89.76
2018-08-25T02:05:47.629Z,89.90
2018-08-25T02:06:47.567Z,90.00
2018-08-25T02:08:40.344Z,90.19
2018-08-25T02:09:40.291Z,91.05
2018-08-25T02:11:33.055Z,91.53
2018-08-25T02:12:32.976Z,91.63
2018-08-25T02:14:25.757Z,92.30
2018-08-25T02:15:25.682Z,92.44
2018-08-25T02:17:18.465Z,92.83
2018-08-25T02:18:18.388Z,93.21
2018-08-25T02:20:11.187Z,94.17
2018-08-25T02:21:11.122Z,95.31
2018-08-25T02:23:03.920Z,95.31
2018-08-25T02:24:03.848Z,94.84
2018-08-25T02:25:56.613Z,94.31
2018-08-25T02:26:56.552Z,94.02
2018-08-25T02:28:49.337Z,93.79
2018-08-25T02:29:49.258Z,93.93
2018-08-25T02:31:42.048Z,94.21
2018-08-25T02:32:41.970Z,95.07
2018-08-25T02:34:34.767Z,94.98
2018-08-25T02:35:34.692Z,95.56
2018-08-25T02:37:27.484Z,95.94
2018-08-25T02:38:27.398Z,96.42
2018-08-25T02:40:20.235Z,95.56
2018-08-25T02:41:20.096Z,95.84
2018-08-25T02:43:12.928Z,96.32
2018-08-25T02:44:12.792Z,96.13
2018-08-25T02:46:05.579Z,96.42
2018-08-25T02:47:05.506Z,97.37
2018-08-25T02:48:58.274Z,96.89
2018-08-25T02:49:58.212Z,97.95
2018-08-25T02:51:51.021Z,97.47
2018-08-25T02:52:50.949Z,96.51
2018-08-25T02:54:43.724Z,97.47
2018-08-25T02:55:43.651Z,98.09
2018-08-25T02:57:36.446Z,97.23
2018-08-25T02:58:36.373Z,97.52
2018-08-25T03:00:29.128Z,97.52
2018-08-25T03:01:29.065Z,97.52
2018-08-25T03:03:21.849Z,98.47
2018-08-25T03:04:21.773Z,98.66
2018-08-25T03:06:14.570Z,98.47
2018-08-25T03:07:14.522Z,99.62
2018-08-25T03:09:07.284Z,99.62
2018-08-25T03:10:07.219Z,98.57
2018-08-25T03:11:59.980Z,96.75
2018-08-25T03:12:59.908Z,96.18
2018-08-25T03:14:52.670Z,96.47
2018-08-25T03:15:52.611Z,95.98
2018-08-25T03:17:45.380Z,95.41
2018-08-25T03:18:45.326Z,95.75
2018-08-25T03:20:38.084Z,95.17
2018-08-25T03:21:38.023Z,95.07
2018-08-25T03:23:30.796Z,95.27
2018-08-25T03:24:30.724Z,95.07
2018-08-25T03:26:23.480Z,96.70
2018-08-25T03:27:23.415Z,94.89
2018-08-25T03:29:16.225Z,94.79
2018-08-25T03:30:16.122Z,94.98
2018-08-25T03:32:08.895Z,95.27
2018-08-25T03:33:08.818Z,95.84
2018-08-25T03:35:01.605Z,94.31
2018-08-25T03:36:01.542Z,95.07
2018-08-25T03:37:54.349Z,95.17
2018-08-25T03:38:54.262Z,94.69
2018-08-25T03:40:47.047Z,95.17
2018-08-25T03:41:46.974Z,95.46
2018-08-25T03:43:39.769Z,96.51
2018-08-25T03:44:39.695Z,95.84
2018-08-25T03:46:32.451Z,96.70
2018-08-25T03:47:32.398Z,96.61
2018-08-25T03:49:25.166Z,96.42
2018-08-25T03:50:25.089Z,95.98
2018-08-25T03:52:17.890Z,97.56
2018-08-25T03:53:17.817Z,97.61
2018-08-25T03:55:10.580Z,96.18
2018-08-25T03:56:10.505Z,96.18
2018-08-25T03:58:03.312Z,96.75
2018-08-25T03:59:03.220Z,96.94
2018-08-25T04:00:56.015Z,96.84
2018-08-25T04:01:55.933Z,96.99
2018-08-25T04:03:48.710Z,97.90
2018-08-25T04:04:48.629Z,98.09
2018-08-25T04:06:41.415Z,98.47
2018-08-25T04:07:41.348Z,97.71
2018-08-25T04:09:34.129Z,97.71
2018-08-25T04:10:34.048Z,98.76
2018-08-25T04:12:26.825Z,98.95
2018-08-25T04:13:26.757Z,99.19
2018-08-25T04:15:19.551Z,99.24
2018-08-25T04:16:19.502Z,97.85
2018-08-25T04:18:12.293Z,96.61
2018-08-25T04:19:12.218Z,97.18
2018-08-25T04:21:04.998Z,96.22
2018-08-25T04:22:04.939Z,96.22
2018-08-25T04:23:57.698Z,96.61
2018-08-25T04:24:57.623Z,97.47
2018-08-25T04:26:50.414Z,97.75
2018-08-25T04:27:50.332Z,97.09
2018-08-25T04:29:43.123Z,96.89
2018-08-25T04:30:43.052Z,97.75
2018-08-25T04:32:35.888Z,98.24
2018-08-25T04:33:35.951Z,97.56
2018-08-25T04:35:28.538Z,99.77
2018-08-25T04:36:28.472Z,99.10
2018-08-25T04:38:21.314Z,98.62
2018-08-25T04:39:21.236Z,99.00
2018-08-25T04:41:14.084Z,99.99
2018-08-25T04:42:13.958Z,99.38
2018-08-25T04:44:06.742Z,98.81
2018-08-25T04:45:06.670Z,99.19
2018-08-25T04:46:59.438Z,98.33
2018-08-25T04:47:59.369Z,97.75
2018-08-25T04:49:52.205Z,97.56
2018-08-25T04:50:52.123Z,97.56
2018-08-25T04:52:44.938Z,97.85
2018-08-25T04:53:44.848Z,98.91
2018-08-25T04:55:37.620Z,98.24
2018-08-25T04:56:37.551Z,97.75
2018-08-25T04:58:30.433Z,98.52
2018-08-25T04:59:30.272Z,98.24
2018-08-25T05:01:23.034Z,99.10
2018-08-25T05:02:23.027Z,99.29
2018-08-25T05:04:15.767Z,98.14
2018-08-25T05:05:15.685Z,98.05
2018-08-25T05:07:08.459Z,98.05
2018-08-25T05:08:08.391Z,98.28
2018-08-25T05:10:01.180Z,97.80
2018-08-25T05:11:01.107Z,96.94
2018-08-25T05:12:53.894Z,96.27
2018-08-25T05:13:53.839Z,96.13
2018-08-25T05:15:46.664Z,96.84
2018-08-25T05:16:46.578Z,97.52
2018-08-25T05:18:39.378Z,96.47
2018-08-25T05:19:39.299Z,97.71
2018-08-25T05:21:32.084Z,98.86
2018-08-25T05:22:32.007Z,98.19
2018-08-25T05:24:24.802Z,95.79
2018-08-25T05:25:24.728Z,95.17
2018-08-25T05:27:17.505Z,96.13
2018-08-25T05:28:17.446Z,96.42
2018-08-25T05:30:10.255Z,94.98
2018-08-25T05:31:10.168Z,96.03
2018-08-25T05:33:02.938Z,95.75
2018-08-25T05:34:02.888Z,95.65
2018-08-25T05:35:55.788Z,95.46
2018-08-25T05:36:55.710Z,96.51
2018-08-25T05:38:48.498Z,97.09
2018-08-25T05:39:48.430Z,95.94
2018-08-25T05:41:41.198Z,96.51
2018-08-25T05:42:41.129Z,96.56
2018-08-25T05:44:34.184Z,94.64
2018-08-25T05:45:33.883Z,94.26
2018-08-25T05:47:26.655Z,94.93
2018-08-25T05:48:26.604Z,94.74
2018-08-25T05:50:19.376Z,96.56
2018-08-25T05:51:19.314Z,96.47
2018-08-25T05:53:12.084Z,96.66
2018-08-25T05:54:12.017Z,95.12
2018-08-25T05:56:04.795Z,94.21
2018-08-25T05:57:04.734Z,93.92
2018-08-25T05:58:57.496Z,93.82
2018-08-25T05:59:57.427Z,93.35
2018-08-25T06:01:50.812Z,93.20
2018-08-25T06:02:50.610Z,92.72
2018-08-25T06:04:43.281Z,92.14
2018-08-25T06:05:43.290Z,90.70
2018-08-25T06:07:36.163Z,90.94
2018-08-25T06:08:36.163Z,91.13
2018-08-25T06:10:29.068Z,90.89
2018-08-25T06:11:28.974Z,89.45
2018-08-25T06:13:22.022Z,88.49
2018-08-25T06:14:21.832Z,89.07
2018-08-25T06:16:15.203Z,89.88
2018-08-25T06:17:14.999Z,88.63
2018-08-25T06:19:07.876Z,87.67
2018-08-25T06:20:07.749Z,86.04
2018-08-25T06:22:00.958Z,84.92
2018-08-25T06:23:00.907Z,84.92
2018-08-25T06:24:53.744Z,84.06
2018-08-25T06:25:53.588Z,83.33
2018-08-25T06:27:46.743Z,82.31
2018-08-25T06:28:46.714Z,82.31
2018-08-25T06:30:39.777Z,81.77
2018-08-25T06:31:39.554Z,81.58
2018-08-25T06:33:32.776Z,81.20
2018-08-25T06:34:32.395Z,78.63
2018-08-25T06:36:25.395Z,79.02
2018-08-25T06:37:25.258Z,79.11
2018-08-25T06:39:18.215Z,78.34
2018-08-25T06:40:18.158Z,77.76
2018-08-25T06:42:11.407Z,79.21
2018-08-25T06:43:11.143Z,79.50
2018-08-25T06:45:04.180Z,79.06
2018-08-25T06:46:04.407Z,78.86
2018-08-25T06:47:57.231Z,75.99
2018-08-25T06:48:56.865Z,72.58
2018-08-25T06:50:49.902Z,68.73
2018-08-25T06:51:49.762Z,65.27
2018-08-25T06:53:43.075Z,62.75
2018-08-25T06:54:42.834Z,61.84
2018-08-25T06:56:35.806Z,61.00
2018-08-25T06:57:35.629Z,58.11
2018-08-25T06:59:28.861Z,58.14
2018-08-25T07:00:28.660Z,56.56
2018-08-25T07:02:21.468Z,54.80
2018-08-25T07:03:21.390Z,55.98
2018-08-25T07:05:14.595Z,58.44
2018-08-25T07:06:14.457Z,58.51
2018-08-25T07:08:07.242Z,60.27
2018-08-25T07:09:07.256Z,59.46
2018-08-25T07:10:59.988Z,62.04
2018-08-25T07:11:59.912Z,61.43
2018-08-25T07:13:52.692Z,61.60
2018-08-25T07:14:52.639Z,62.59
2018-08-25T07:16:45.443Z,62.04
2018-08-25T07:17:45.351Z,61.72
2018-08-25T07:19:38.182Z,60.27
2018-08-25T07:20:38.080Z,62.59
2018-08-25T07:22:30.889Z,60.85
2018-08-25T07:23:30.836Z,60.82
2018-08-25T07:25:23.613Z,62.08
2018-08-25T07:26:23.622Z,61.46
2018-08-25T07:28:16.331Z,60.37
2018-08-25T07:29:16.267Z,59.79
2018-08-25T07:31:09.109Z,60.66
2018-08-25T07:32:09.066Z,60.30
2018-08-25T07:34:01.828Z,60.00
2018-08-25T07:35:01.778Z,58.77
2018-08-25T07:36:54.549Z,53.59
2018-08-25T07:37:54.485Z,53.13
2018-08-25T07:39:47.299Z,52.59
2018-08-25T07:40:47.219Z,53.86
2018-08-25T07:42:39.999Z,51.04
2018-08-25T07:43:39.934Z,52.50
2018-08-25T07:45:32.807Z,53.32
2018-08-25T07:46:32.716Z,51.77
2018-08-25T07:48:25.573Z,53.59
2018-08-25T07:49:25.490Z,51.21
2018-08-25T07:51:18.299Z,51.98
2018-08-25T07:52:18.209Z,51.47
2018-08-25T07:54:11.006Z,53.19
2018-08-25T07:55:10.945Z,53.39
2018-08-25T07:57:03.918Z,53.00
2018-08-25T07:58:03.783Z,54.64
2018-08-25T07:59:56.585Z,53.02
2018-08-25T08:00:56.516Z,55.22
2018-08-25T08:02:49.306Z,54.94
2018-08-25T08:03:49.249Z,55.16
2018-08-25T08:05:42.074Z,54.48
2018-08-25T08:06:41.999Z,52.93
2018-08-25T08:08:34.797Z,52.64
2018-08-25T08:09:34.728Z,52.73
2018-08-25T08:11:27.523Z,52.76
2018-08-25T08:12:27.445Z,50.77
2018-08-25T08:14:20.259Z,48.61
2018-08-25T08:15:20.189Z,45.91
2018-08-25T08:17:12.998Z,47.53
2018-08-25T08:18:12.925Z,46.86
2018-08-25T08:20:05.789Z,46.95
2018-08-25T08:21:05.718Z,47.98
2018-08-25T08:22:58.505Z,49.66
2018-08-25T08:23:58.451Z,49.00
2018-08-25T08:25:51.252Z,51.48
2018-08-25T08:26:51.180Z,51.51
2018-08-25T08:28:43.963Z,50.41
2018-08-25T08:29:43.908Z,51.97
2018-08-25T08:31:36.759Z,49.41
2018-08-25T08:32:36.712Z,50.68
2018-08-25T08:34:29.473Z,50.31
2018-08-25T08:35:29.428Z,49.44
2018-08-25T08:37:22.229Z,48.90
2018-08-25T08:38:22.156Z,47.58
2018-08-25T08:40:14.990Z,48.32
2018-08-25T08:41:14.944Z,48.58
2018-08-25T08:43:07.740Z,50.02
2018-08-25T08:44:07.665Z,50.21
2018-08-25T08:46:00.474Z,50.95
2018-08-25T08:47:00.390Z,51.99
2018-08-25T08:48:53.190Z,52.69
2018-08-25T08:49:53.155Z,52.65
2018-08-25T08:51:45.914Z,49.46
2018-08-25T08:52:45.849Z,49.19
2018-08-25T08:54:38.651Z,49.39
2018-08-25T08:55:38.598Z,48.32
2018-08-25T08:57:31.403Z,46.56
2018-08-25T08:58:31.337Z,45.98
2018-08-25T09:00:24.148Z,46.59
2018-08-25T09:01:24.097Z,44.95
2018-08-25T09:03:16.961Z,44.38
2018-08-25T09:04:16.864Z,45.29
2018-08-25T09:06:09.650Z,44.78
2018-08-25T09:07:09.592Z,44.46
2018-08-25T09:09:02.398Z,44.13
2018-08-25T09:10:02.313Z,45.32
2018-08-25T09:11:55.460Z,45.29
2018-08-25T09:12:55.083Z,46.69
2018-08-25T09:14:47.903Z,45.34
2018-08-25T09:15:47.881Z,45.49
2018-08-25T09:17:40.655Z,45.94
2018-08-25T09:18:40.585Z,46.81
2018-08-25T09:20:33.487Z,45.86
2018-08-25T09:21:33.410Z,45.28
2018-08-25T09:23:26.205Z,45.51
2018-08-25T09:24:26.151Z,44.34
2018-08-25T09:26:18.955Z,46.30
2018-08-25T09:27:18.898Z,45.73
2018-08-25T09:29:11.770Z,45.64
2018-08-25T09:30:11.716Z,44.64
2018-08-25T09:32:05.375Z,47.00
2018-08-25T09:33:05.291Z,46.54
2018-08-25T09:34:58.127Z,47.83
2018-08-25T09:35:58.125Z,48.15
2018-08-25T09:37:50.965Z,50.16
2018-08-25T09:38:50.835Z,49.12
2018-08-25T09:40:43.648Z,48.54
2018-08-25T09:41:43.599Z,49.05
2018-08-25T09:43:36.417Z,48.27
2018-08-25T09:44:36.329Z,48.30
2018-08-25T09:46:29.120Z,48.15
2018-08-25T09:47:29.081Z,46.91
2018-08-25T09:49:21.880Z,49.19
2018-08-25T09:50:21.809Z,47.74
2018-08-25T09:52:14.613Z,46.51
2018-08-25T09:53:14.549Z,46.59
2018-08-25T09:55:07.420Z,46.96
2018-08-25T09:56:07.357Z,46.98
2018-08-25T09:58:00.223Z,45.54
2018-08-25T09:59:00.199Z,45.62
2018-08-25T10:00:52.952Z,46.98
2018-08-25T10:01:52.903Z,48.42
2018-08-25T10:03:45.712Z,50.65
2018-08-25T10:04:45.657Z,50.62
2018-08-25T10:06:38.472Z,48.32
2018-08-25T10:07:38.405Z,47.47
2018-08-25T10:09:32.245Z,45.91
2018-08-25T10:10:32.158Z,46.50
2018-08-25T10:12:24.936Z,48.56
2018-08-25T10:13:24.871Z,46.03
2018-08-25T10:15:17.649Z,46.42
2018-08-25T10:16:17.616Z,47.74
2018-08-25T10:18:10.411Z,49.85
2018-08-25T10:19:10.328Z,49.39
2018-08-25T10:21:03.134Z,49.58
2018-08-25T10:22:03.086Z,49.39
2018-08-25T10:23:56.437Z,49.95
2018-08-25T10:24:56.362Z,50.53
2018-08-25T10:26:49.166Z,51.79
2018-08-25T10:27:49.087Z,50.72
2018-08-25T10:29:42.005Z,51.67
2018-08-25T10:30:41.814Z,51.47
2018-08-25T10:32:34.616Z,52.03
2018-08-25T10:33:34.542Z,51.74
2018-08-25T10:35:27.346Z,52.51
2018-08-25T10:36:27.279Z,51.42
2018-08-25T10:38:20.091Z,51.13
2018-08-25T10:39:20.042Z,52.87
2018-08-25T10:41:12.811Z,50.94
2018-08-25T10:42:12.855Z,51.32
2018-08-25T10:44:05.794Z,51.42
2018-08-25T10:45:05.677Z,51.13
2018-08-25T10:46:58.476Z,50.38
2018-08-25T10:47:58.445Z,49.70
2018-08-25T10:49:51.217Z,48.90
2018-08-25T10:50:51.148Z,47.76
2018-08-25T10:52:43.944Z,48.10
2018-08-25T10:53:43.868Z,48.66
2018-08-25T10:55:36.781Z,50.50
2018-08-25T10:56:36.632Z,50.09
2018-08-25T10:58:29.401Z,51.52
2018-08-25T10:59:29.381Z,52.56
2018-08-25T11:01:22.112Z,52.75
2018-08-25T11:02:22.073Z,53.04
2018-08-25T11:04:14.891Z,52.73
2018-08-25T11:05:14.815Z,51.76
2018-08-25T11:07:07.620Z,55.15
2018-08-25T11:08:07.541Z,57.08
2018-08-25T11:10:00.341Z,56.37
2018-08-25T11:11:00.276Z,54.66
2018-08-25T11:12:53.140Z,55.60
2018-08-25T11:13:53.079Z,56.40
2018-08-25T11:15:45.915Z,56.76
2018-08-25T11:16:45.838Z,57.15
2018-08-25T11:18:38.701Z,58.89
2018-08-25T11:19:38.566Z,57.92
2018-08-25T11:21:31.372Z,58.76
2018-08-25T11:22:31.304Z,58.37
2018-08-25T11:24:24.109Z,56.73
2018-08-25T11:25:24.085Z,57.51
2018-08-25T11:27:16.825Z,57.03
2018-08-25T11:28:16.750Z,57.67
2018-08-25T11:30:09.547Z,57.96
2018-08-25T11:31:09.471Z,58.06
2018-08-25T11:33:02.297Z,57.77
2018-08-25T11:34:02.216Z,56.71
2018-08-25T11:35:55.038Z,58.67
2018-08-25T11:36:54.966Z,56.63
2018-08-25T11:38:47.759Z,54.44
2018-08-25T11:39:47.682Z,53.67
2018-08-25T11:41:40.503Z,56.34
2018-08-25T11:42:40.455Z,53.65
2018-08-25T11:44:33.247Z,51.76
2018-08-25T11:45:33.161Z,50.60
2018-08-25T11:47:25.965Z,52.47
2018-08-25T11:48:25.898Z,51.21
2018-08-25T11:50:18.685Z,52.54
2018-08-25T11:51:18.649Z,52.34
2018-08-25T11:53:11.418Z,51.37
2018-08-25T11:54:11.400Z,51.67
2018-08-25T11:56:04.201Z,51.93
2018-08-25T11:57:04.130Z,50.77
2018-08-25T11:58:56.989Z,50.60
2018-08-25T11:59:57.027Z,50.50
2018-08-25T12:01:49.811Z,49.70
2018-08-25T12:02:49.675Z,50.29
2018-08-25T12:04:42.447Z,50.55
2018-08-25T12:05:42.350Z,51.81
2018-08-25T12:07:35.142Z,51.52
2018-08-25T12:08:35.107Z,50.07
2018-08-25T12:10:27.862Z,52.87
2018-08-25T12:11:27.809Z,51.32
2018-08-25T12:13:20.622Z,48.90
2018-08-25T12:14:20.581Z,50.74
2018-08-25T12:16:13.381Z,49.07
2018-08-25T12:17:13.277Z,49.05
2018-08-25T12:19:06.066Z,48.86
2018-08-25T12:20:05.998Z,50.31
2018-08-25T12:21:58.843Z,51.06
2018-08-25T12:22:58.783Z,50.38
2018-08-25T12:24:51.591Z,50.74
2018-08-25T12:25:51.535Z,52.87
2018-08-25T12:27:44.322Z,49.46
2018-08-25T12:28:44.243Z,49.75
2018-08-25T12:30:37.065Z,51.59
2018-08-25T12:31:36.983Z,52.36
2018-08-25T12:33:29.824Z,52.36
2018-08-25T12:34:29.689Z,52.84
2018-08-25T12:36:22.583Z,52.36
2018-08-25T12:37:22.516Z,51.29
2018-08-25T12:39:15.393Z,51.87
2018-08-25T12:40:15.243Z,50.81
2018-08-25T12:42:08.190Z,50.43
2018-08-25T12:43:08.084Z,50.91
2018-08-25T12:45:00.940Z,51.10
2018-08-25T12:46:00.797Z,51.65
2018-08-25T12:47:53.618Z,52.62
2018-08-25T12:48:53.551Z,52.43
2018-08-25T12:50:46.286Z,52.23
2018-08-25T12:51:46.316Z,52.72
2018-08-25T12:53:39.061Z,54.17
2018-08-25T12:54:38.955Z,55.04
2018-08-25T12:56:31.808Z,55.30
2018-08-25T12:57:31.755Z,55.98
2018-08-25T12:59:24.582Z,57.52
2018-08-25T13:00:24.488Z,55.68
2018-08-25T13:02:17.263Z,55.46
2018-08-25T13:03:17.200Z,56.24
2018-08-25T13:05:09.991Z,57.10
2018-08-25T13:06:09.917Z,58.26
2018-08-25T13:08:02.733Z,60.74
2018-08-25T13:09:02.633Z,65.08
2018-08-25T13:10:55.709Z,68.23
2018-08-25T13:11:55.642Z,71.08
2018-08-25T13:13:48.479Z,73.65
2018-08-25T13:14:48.493Z,75.76
2018-08-25T13:16:41.196Z,74.86
2018-08-25T13:17:41.126Z,74.38
2018-08-25T13:19:33.920Z,76.78
2018-08-25T13:20:33.846Z,76.98
2018-08-25T13:22:26.624Z,78.52
2018-08-25T13:23:26.626Z,79.28
2018-08-25T13:25:19.355Z,82.61
2018-08-25T13:26:19.279Z,82.61
2018-08-25T13:28:12.071Z,85.69
2018-08-25T13:29:12.002Z,85.11
2018-08-25T13:31:04.856Z,84.59
2018-08-25T13:32:04.704Z,86.22
2018-08-25T13:33:57.532Z,90.45
2018-08-25T13:34:57.454Z,91.42
2018-08-25T13:36:50.314Z,94.78
2018-08-25T13:37:50.196Z,93.68
2018-08-25T13:39:42.971Z,99.99
2018-08-25T13:40:42.912Z,99.92
2018-08-25T13:42:35.675Z,99.99
2018-08-25T13:43:35.660Z,99.99
2018-08-25T13:45:28.516Z,99.99
2018-08-25T13:46:28.335Z,99.99
2018-08-25T13:48:21.145Z,99.99
2018-08-25T13:49:21.067Z,99.99
2018-08-25T13:51:13.819Z,99.99
2018-08-25T13:52:13.755Z,99.99
2018-08-25T13:54:06.538Z,99.99
2018-08-25T13:55:06.467Z,99.99
2018-08-25T13:56:59.251Z,99.99
2018-08-25T13:57:59.203Z,99.99
2018-08-25T13:59:51.969Z,99.99
2018-08-25T14:00:51.895Z,99.99
2018-08-25T14:02:44.728Z,99.99
2018-08-25T14:03:44.622Z,99.99
2018-08-25T14:05:37.445Z,99.99
2018-08-25T14:06:37.381Z,99.99
2018-08-25T14:08:30.369Z,99.99
2018-08-25T14:09:30.119Z,99.99
2018-08-25T14:11:22.897Z,98.24
2018-08-25T14:12:22.829Z,99.99
2018-08-25T14:14:15.623Z,99.99
2018-08-25T14:15:15.552Z,99.99
2018-08-25T14:17:08.325Z,99.73
2018-08-25T14:18:08.270Z,97.33
2018-08-25T14:20:01.073Z,98.86
2018-08-25T14:21:00.996Z,95.12
2018-08-25T14:22:53.783Z,95.40
2018-08-25T14:23:53.709Z,95.98
2018-08-25T14:25:46.513Z,94.21
2018-08-25T14:26:46.434Z,93.87
2018-08-25T14:28:39.236Z,93.49
2018-08-25T14:29:39.169Z,94.93
2018-08-25T14:31:31.984Z,91.28
2018-08-25T14:32:32.584Z,90.60
2018-08-25T14:34:24.837Z,91.08
2018-08-25T14:35:24.622Z,90.41
2018-08-25T14:37:17.405Z,92.24
2018-08-25T14:38:17.338Z,90.80
2018-08-25T14:40:10.190Z,90.12
2018-08-25T14:41:10.118Z,89.40
2018-08-25T14:43:02.893Z,88.06
2018-08-25T14:44:02.832Z,87.57
2018-08-25T14:45:55.703Z,89.83
2018-08-25T14:46:55.597Z,89.64
2018-08-25T14:48:48.411Z,84.06
2018-08-25T14:49:48.345Z,84.25
2018-08-25T14:51:41.176Z,85.50
2018-08-25T14:52:41.091Z,85.40
2018-08-25T14:54:33.968Z,84.83
2018-08-25T14:55:33.835Z,85.54
2018-08-25T14:57:26.660Z,84.39
2018-08-25T14:58:26.595Z,83.62
2018-08-25T15:00:19.420Z,82.46
2018-08-25T15:01:19.339Z,82.75
2018-08-25T15:03:12.223Z,83.04
2018-08-25T15:04:12.164Z,81.54
2018-08-25T15:06:04.974Z,81.06
2018-08-25T15:07:04.894Z,81.35
2018-08-25T15:08:57.664Z,81.70
2018-08-25T15:09:57.615Z,82.46
2018-08-25T15:11:50.499Z,82.37
2018-08-25T15:12:50.326Z,81.60
2018-08-25T15:14:43.121Z,81.02
2018-08-25T15:15:43.036Z,82.08
2018-08-25T15:17:35.833Z,81.40
2018-08-25T15:18:35.774Z,81.98
2018-08-25T15:20:28.571Z,82.42
2018-08-25T15:21:28.504Z,81.56
2018-08-25T15:23:21.271Z,81.07
2018-08-25T15:24:21.210Z,81.75
2018-08-25T15:26:14.056Z,81.84
2018-08-25T15:27:14.051Z,81.65
2018-08-25T15:29:06.832Z,81.30
2018-08-25T15:30:06.753Z,81.30
2018-08-25T15:31:59.547Z,81.88
2018-08-25T15:32:59.464Z,81.56
2018-08-25T15:34:52.292Z,79.92
2018-08-25T15:35:52.220Z,79.82
2018-08-25T15:37:45.095Z,79.05
2018-08-25T15:38:45.024Z,79.53
2018-08-25T15:40:37.820Z,79.38
2018-08-25T15:41:37.738Z,78.71
2018-08-25T15:43:30.607Z,78.03
2018-08-25T15:44:30.461Z,78.13
2018-08-25T15:46:23.258Z,79.28
2018-08-25T15:47:23.175Z,79.28
2018-08-25T15:49:15.996Z,79.15
2018-08-25T15:50:15.890Z,79.82
2018-08-25T15:52:08.737Z,79.82
2018-08-25T15:53:08.615Z,78.28
2018-08-25T15:55:01.462Z,78.19
2018-08-25T15:56:01.405Z,74.63
2018-08-25T15:57:54.241Z,73.80
2018-08-25T15:58:54.088Z,73.42
2018-08-25T16:00:46.926Z,73.42
2018-08-25T16:01:46.853Z,73.90
2018-08-25T16:03:39.616Z,71.11
2018-08-25T16:04:39.553Z,69.95
2018-08-25T16:06:32.345Z,69.63
2018-08-25T16:07:32.262Z,69.28
2018-08-25T16:09:25.091Z,68.09
2018-08-25T16:10:25.012Z,69.38
2018-08-25T16:12:17.933Z,69.53
2018-08-25T16:13:17.779Z,70.01
2018-08-25T16:15:10.565Z,71.08
2018-08-25T16:16:10.495Z,72.13
2018-08-25T16:18:03.279Z,72.86
2018-08-25T16:19:03.234Z,73.44
2018-08-25T16:20:56.035Z,73.63
2018-08-25T16:21:55.972Z,73.06
2018-08-25T16:23:48.725Z,73.92
2018-08-25T16:24:48.669Z,74.40
2018-08-25T16:26:41.457Z,74.69
2018-08-25T16:27:41.447Z,73.63
2018-08-25T16:29:34.195Z,73.25
2018-08-25T16:30:34.110Z,73.06
2018-08-25T16:32:27.090Z,73.15
2018-08-25T16:33:27.030Z,74.79
2018-08-25T16:35:19.793Z,73.63
2018-08-25T16:36:19.731Z,73.15
2018-08-25T16:38:12.512Z,73.31
2018-08-25T16:39:12.443Z,73.60
2018-08-25T16:41:05.237Z,73.79
2018-08-25T16:42:05.146Z,73.02
2018-08-25T16:43:57.921Z,73.69
2018-08-25T16:44:57.855Z,73.41
2018-08-25T16:46:50.750Z,72.92
2018-08-25T16:47:50.632Z,73.69
2018-08-25T16:49:43.711Z,73.11
2018-08-25T16:50:43.370Z,72.64
2018-08-25T16:52:36.180Z,72.92
2018-08-25T16:53:36.110Z,73.79
2018-08-25T16:55:29.256Z,73.21
2018-08-25T16:56:28.821Z,74.65
2018-08-25T16:58:21.673Z,73.98
2018-08-25T16:59:21.747Z,74.65
2018-08-25T17:01:14.576Z,73.50
2018-08-25T17:02:15.166Z,73.60
2018-08-25T17:04:07.459Z,73.88
2018-08-25T17:05:07.227Z,74.94
2018-08-25T17:07:00.058Z,73.98
2018-08-25T17:07:59.964Z,73.79
2018-08-25T17:09:52.748Z,73.79
2018-08-25T17:10:52.686Z,73.98
2018-08-25T17:12:45.488Z,73.41
2018-08-25T17:13:45.736Z,73.60
2018-08-25T17:15:38.219Z,73.60
2018-08-25T17:16:38.118Z,74.08
2018-08-25T17:18:30.878Z,74.75
2018-08-25T17:19:30.806Z,74.65
2018-08-25T17:21:23.636Z,75.04
2018-08-25T17:22:23.547Z,74.33
2018-08-25T17:24:16.370Z,74.33
2018-08-25T17:25:16.294Z,74.52
2018-08-25T17:27:09.114Z,74.62
2018-08-25T17:28:09.020Z,75.10
2018-08-25T17:30:01.813Z,74.62
2018-08-25T17:31:01.728Z,74.04
2018-08-25T17:32:54.584Z,74.23
2018-08-25T17:33:54.507Z,73.94
2018-08-25T17:35:47.464Z,72.79
2018-08-25T17:36:47.266Z,72.66
2018-08-25T17:38:40.048Z,72.47
2018-08-25T17:39:39.978Z,73.14
2018-08-25T17:41:32.888Z,73.43
2018-08-25T17:42:32.829Z,73.43
2018-08-25T17:44:25.639Z,73.62
2018-08-25T17:45:25.595Z,73.43
2018-08-25T17:47:18.317Z,73.62
2018-08-25T17:48:18.223Z,73.04
2018-08-25T17:50:11.088Z,72.75
2018-08-25T17:51:10.950Z,72.95
2018-08-25T17:53:04.082Z,72.85
2018-08-25T17:54:04.002Z,73.30
2018-08-25T17:55:56.986Z,73.24
2018-08-25T17:56:57.089Z,73.10
2018-08-25T17:58:49.779Z,73.00
2018-08-25T17:59:49.731Z,73.87
2018-08-25T18:01:42.502Z,73.87
2018-08-25T18:02:42.418Z,74.54
2018-08-25T18:04:35.247Z,74.16
2018-08-25T18:05:35.148Z,74.26
2018-08-25T18:07:27.937Z,74.44
2018-08-25T18:08:27.864Z,74.79
2018-08-25T18:10:20.629Z,75.46
2018-08-25T18:11:20.600Z,75.75
2018-08-25T18:13:13.348Z,75.65
2018-08-25T18:14:13.292Z,75.65
2018-08-25T18:16:06.116Z,75.18
2018-08-25T18:17:06.023Z,76.23
2018-08-25T18:18:58.818Z,75.37
2018-08-25T18:19:58.758Z,76.04
2018-08-25T18:21:51.539Z,76.52
2018-08-25T18:22:51.452Z,77.48
2018-08-25T18:24:44.251Z,77.48
2018-08-25T18:25:44.198Z,77.86
2018-08-25T18:27:36.980Z,76.90
2018-08-25T18:28:36.909Z,76.90
2018-08-25T18:30:29.670Z,77.67
2018-08-25T18:31:29.616Z,76.62